sensor_id;sensor_type;location;lat;lon;timestamp;pressure;altitude;pressure_sealevel;temperature;humidity
74615;BME280;63121;51.458;-0.110;2022-09-20T00:01:10;102401.44;;;15.55;67.68
74615;BME280;63121;51.458;-0.110;2022-09-20T00:03:38;102398.91;;;15.48;67.47
74615;BME280;63121;51.458;-0.110;2022-09-20T00:06:06;102404.03;;;15.60;67.57
74615;BME280;63121;51.458;-0.110;2022-09-20T00:08:32;102397.13;;;15.51;67.76
74615;BME280;63121;51.458;-0.110;2022-09-20T00:11:03;102400.59;;;15.56;67.52
74615;BME280;63121;51.458;-0.110;2022-09-20T00:13:31;102398.00;;;15.49;68.08
74615;BME280;63121;51.458;-0.110;2022-09-20T00:15:57;102403.16;;;15.59;67.80
74615;BME280;63121;51.458;-0.110;2022-09-20T00:18:23;102386.69;;;15.59;67.19
74615;BME280;63121;51.458;-0.110;2022-09-20T00:20:49;102399.72;;;15.51;67.72
74615;BME280;63121;51.458;-0.110;2022-09-20T00:23:15;102404.91;;;15.57;67.33
74615;BME280;63121;51.458;-0.110;2022-09-20T00:25:41;102406.66;;;15.58;67.47
74615;BME280;63121;51.458;-0.110;2022-09-20T00:28:08;102405.81;;;15.50;67.41
74615;BME280;63121;51.458;-0.110;2022-09-20T00:30:34;102403.22;;;15.50;67.29
74615;BME280;63121;51.458;-0.110;2022-09-20T00:33:00;102402.38;;;15.42;67.80
74615;BME280;63121;51.458;-0.110;2022-09-20T00:35:27;102409.38;;;15.29;68.33
74615;BME280;63121;51.458;-0.110;2022-09-20T00:37:54;102405.94;;;15.19;68.80
74615;BME280;63121;51.458;-0.110;2022-09-20T00:40:21;102410.28;;;15.17;68.46
74615;BME280;63121;51.458;-0.110;2022-09-20T00:42:48;102410.28;;;15.14;68.93
74615;BME280;63121;51.458;-0.110;2022-09-20T00:52:45;102414.69;;;14.97;69.06
74615;BME280;63121;51.458;-0.110;2022-09-20T00:55:14;102405.16;;;14.99;69.31
74615;BME280;63121;51.458;-0.110;2022-09-20T00:57:41;102414.69;;;14.94;68.90
74615;BME280;63121;51.458;-0.110;2022-09-20T01:00:10;102409.47;;;15.00;68.70
74615;BME280;63121;51.458;-0.110;2022-09-20T01:02:36;102409.47;;;15.00;68.83
74615;BME280;63121;51.458;-0.110;2022-09-20T01:05:03;102409.47;;;14.95;69.42
74615;BME280;63121;51.458;-0.110;2022-09-20T01:07:28;102408.63;;;14.89;69.25
74615;BME280;63121;51.458;-0.110;2022-09-20T01:09:54;102413.81;;;14.84;69.64
74615;BME280;63121;51.458;-0.110;2022-09-20T01:12:22;102415.53;;;14.90;69.71
74615;BME280;63121;51.458;-0.110;2022-09-20T01:14:50;102419.00;;;14.93;69.44
74615;BME280;63121;51.458;-0.110;2022-09-20T01:17:16;102423.34;;;14.97;69.55
74615;BME280;63121;51.458;-0.110;2022-09-20T01:27:52;102425.94;;;14.99;69.22
74615;BME280;63121;51.458;-0.110;2022-09-20T01:32:55;102421.59;;;14.90;69.51
74615;BME280;63121;51.458;-0.110;2022-09-20T01:35:25;102419.03;;;14.89;69.77
74615;BME280;63121;51.458;-0.110;2022-09-20T01:40:47;102419.03;;;14.67;70.36
74615;BME280;63121;51.458;-0.110;2022-09-20T01:46:29;102419.03;;;14.62;70.84
74615;BME280;63121;51.458;-0.110;2022-09-20T01:49:12;102422.50;;;14.49;71.15
74615;BME280;63121;51.458;-0.110;2022-09-20T02:08:31;102422.47;;;14.29;71.74
74615;BME280;63121;51.458;-0.110;2022-09-20T02:11:10;102417.25;;;14.29;71.46
74615;BME280;63121;51.458;-0.110;2022-09-20T02:24:38;102416.44;;;14.32;71.44
74615;BME280;63121;51.458;-0.110;2022-09-20T02:27:26;102412.94;;;14.50;71.04
74615;BME280;63121;51.458;-0.110;2022-09-20T02:47:31;102419.03;;;14.76;70.07
74615;BME280;63121;51.458;-0.110;2022-09-20T02:56:23;102419.88;;;14.81;70.00
74615;BME280;63121;51.458;-0.110;2022-09-20T02:59:02;102425.09;;;14.81;69.49
74615;BME280;63121;51.458;-0.110;2022-09-20T03:01:31;102423.38;;;14.80;69.52
74615;BME280;63121;51.458;-0.110;2022-09-20T03:06:39;102425.09;;;14.97;68.38
74615;BME280;63121;51.458;-0.110;2022-09-20T03:09:29;102423.34;;;14.99;67.97
74615;BME280;63121;51.458;-0.110;2022-09-20T03:12:18;102427.66;;;14.98;67.96
74615;BME280;63121;51.458;-0.110;2022-09-20T03:17:47;102423.34;;;14.85;66.50
74615;BME280;63121;51.458;-0.110;2022-09-20T03:36:39;102410.38;;;14.53;62.84
74615;BME280;63121;51.458;-0.110;2022-09-20T03:42:36;102403.41;;;14.27;63.65
74615;BME280;63121;51.458;-0.110;2022-09-20T03:50:33;102416.38;;;14.01;64.67
74615;BME280;63121;51.458;-0.110;2022-09-20T03:53:30;102424.16;;;13.92;64.53
74615;BME280;63121;51.458;-0.110;2022-09-20T03:58:49;102422.38;;;13.80;65.09
74615;BME280;63121;51.458;-0.110;2022-09-20T04:02:00;102419.78;;;13.75;65.15
74615;BME280;63121;51.458;-0.110;2022-09-20T04:04:39;102418.91;;;13.72;65.51
74615;BME280;63121;51.458;-0.110;2022-09-20T04:07:15;102431.88;;;13.64;65.69
74615;BME280;63121;51.458;-0.110;2022-09-20T04:12:43;102412.75;;;13.45;66.44
74615;BME280;63121;51.458;-0.110;2022-09-20T04:23:47;102422.25;;;13.37;69.10
74615;BME280;63121;51.458;-0.110;2022-09-20T04:26:19;102423.03;;;13.28;69.80
74615;BME280;63121;51.458;-0.110;2022-09-20T04:28:52;102422.09;;;13.18;70.75
74615;BME280;63121;51.458;-0.110;2022-09-20T04:33:53;102425.59;;;13.22;69.97
74615;BME280;63121;51.458;-0.110;2022-09-20T05:27:46;102437.88;;;12.33;73.64
74615;BME280;63121;51.458;-0.110;2022-09-20T05:35:42;102438.56;;;12.15;73.97
74615;BME280;63121;51.458;-0.110;2022-09-20T05:38:24;102436.78;;;12.06;74.50
74615;BME280;63121;51.458;-0.110;2022-09-20T05:41:15;102426.41;;;12.06;74.38
74615;BME280;63121;51.458;-0.110;2022-09-20T05:43:56;102433.44;;;12.16;73.99
74615;BME280;63121;51.458;-0.110;2022-09-20T05:46:33;102429.09;;;12.17;73.58
74615;BME280;63121;51.458;-0.110;2022-09-20T05:49:33;102430.00;;;12.22;73.72
74615;BME280;63121;51.458;-0.110;2022-09-20T05:54:53;102443.78;;;12.18;73.71
74615;BME280;63121;51.458;-0.110;2022-09-20T06:00:13;102456.75;;;12.23;74.04
74615;BME280;63121;51.458;-0.110;2022-09-20T06:05:39;102456.81;;;12.26;73.38
74615;BME280;63121;51.458;-0.110;2022-09-20T06:13:48;102464.66;;;12.33;73.32
74615;BME280;63121;51.458;-0.110;2022-09-20T06:16:41;102454.38;;;12.43;73.11
74615;BME280;63121;51.458;-0.110;2022-09-20T06:19:17;102462.16;;;12.43;72.66
74615;BME280;63121;51.458;-0.110;2022-09-20T06:21:51;102467.31;;;12.43;72.92
74615;BME280;63121;51.458;-0.110;2022-09-20T06:24:29;102463.94;;;12.48;73.11
74615;BME280;63121;51.458;-0.110;2022-09-20T06:26:58;102461.34;;;12.48;73.01
74615;BME280;63121;51.458;-0.110;2022-09-20T06:29:33;102464.81;;;12.52;72.95
74615;BME280;63121;51.458;-0.110;2022-09-20T06:32:00;102470.91;;;12.58;72.74
74615;BME280;63121;51.458;-0.110;2022-09-20T06:34:27;102475.28;;;12.61;72.57
74615;BME280;63121;51.458;-0.110;2022-09-20T06:42:52;102478.84;;;12.78;72.56
74615;BME280;63121;51.458;-0.110;2022-09-20T06:45:19;102491.81;;;12.78;72.12
74615;BME280;63121;51.458;-0.110;2022-09-20T06:47:44;102493.59;;;12.86;71.99
74615;BME280;63121;51.458;-0.110;2022-09-20T06:50:16;102492.81;;;12.93;72.26
74615;BME280;63121;51.458;-0.110;2022-09-20T06:52:42;102494.63;;;13.08;71.69
74615;BME280;63121;51.458;-0.110;2022-09-20T06:55:12;102487.81;;;13.23;71.22
74615;BME280;63121;51.458;-0.110;2022-09-20T06:57:42;102484.56;;;13.55;70.82
74615;BME280;63121;51.458;-0.110;2022-09-20T07:00:11;102495.03;;;13.69;70.37
74615;BME280;63121;51.458;-0.110;2022-09-20T07:02:37;102492.50;;;13.83;69.72
74615;BME280;63121;51.458;-0.110;2022-09-20T07:05:03;102497.66;;;13.85;70.25
74615;BME280;63121;51.458;-0.110;2022-09-20T07:07:30;102496.81;;;13.84;69.97
74615;BME280;63121;51.458;-0.110;2022-09-20T07:09:55;102495.97;;;13.93;69.75
74615;BME280;63121;51.458;-0.110;2022-09-20T07:12:22;102493.41;;;14.03;69.41
74615;BME280;63121;51.458;-0.110;2022-09-20T07:14:49;102498.63;;;14.10;69.02
74615;BME280;63121;51.458;-0.110;2022-09-20T07:17:14;102496.94;;;14.24;68.44
74615;BME280;63121;51.458;-0.110;2022-09-20T07:19:40;102496.09;;;14.36;67.78
74615;BME280;63121;51.458;-0.110;2022-09-20T07:22:05;102492.63;;;14.34;67.75
74615;BME280;63121;51.458;-0.110;2022-09-20T07:24:31;102494.41;;;14.58;67.00
74615;BME280;63121;51.458;-0.110;2022-09-20T07:27:05;102497.91;;;14.74;66.59
74615;BME280;63121;51.458;-0.110;2022-09-20T07:29:31;102497.88;;;14.94;65.99
74615;BME280;63121;51.458;-0.110;2022-09-20T07:31:59;102499.63;;;15.12;65.37
74615;BME280;63121;51.458;-0.110;2022-09-20T07:34:25;102490.91;;;15.23;64.51
74615;BME280;63121;51.458;-0.110;2022-09-20T07:36:51;102496.94;;;15.41;64.32
74615;BME280;63121;51.458;-0.110;2022-09-20T07:39:17;102496.94;;;15.41;63.78
74615;BME280;63121;51.458;-0.110;2022-09-20T07:41:43;102499.50;;;15.56;62.62
74615;BME280;63121;51.458;-0.110;2022-09-20T07:44:13;102494.28;;;15.58;62.57
74615;BME280;63121;51.458;-0.110;2022-09-20T07:46:57;102502.94;;;15.61;62.59
74615;BME280;63121;51.458;-0.110;2022-09-20T07:49:24;102497.66;;;15.91;61.87
74615;BME280;63121;51.458;-0.110;2022-09-20T07:51:50;102500.19;;;16.08;60.59
74615;BME280;63121;51.458;-0.110;2022-09-20T07:54:16;102505.31;;;16.20;60.37
74615;BME280;63121;51.458;-0.110;2022-09-20T07:56:42;102508.72;;;16.31;59.93
74615;BME280;63121;51.458;-0.110;2022-09-20T07:59:07;102516.66;;;16.10;60.03
74615;BME280;63121;51.458;-0.110;2022-09-20T08:01:34;102514.81;;;16.27;59.86
74615;BME280;63121;51.458;-0.110;2022-09-20T08:04:00;102514.66;;;16.50;59.19
74615;BME280;63121;51.458;-0.110;2022-09-20T08:06:25;102512.88;;;16.57;58.90
74615;BME280;63121;51.458;-0.110;2022-09-20T08:08:51;102521.56;;;16.60;58.52
74615;BME280;63121;51.458;-0.110;2022-09-20T08:11:19;102525.72;;;16.86;57.83
74615;BME280;63121;51.458;-0.110;2022-09-20T08:13:48;102525.56;;;17.04;57.41
74615;BME280;63121;51.458;-0.110;2022-09-20T08:16:15;102522.28;;;16.79;57.79
74615;BME280;63121;51.458;-0.110;2022-09-20T08:18:51;102524.88;;;16.84;57.50
74615;BME280;63121;51.458;-0.110;2022-09-20T08:21:19;102532.66;;;16.93;57.06
74615;BME280;63121;51.458;-0.110;2022-09-20T08:23:45;102531.75;;;16.97;56.74
74615;BME280;63121;51.458;-0.110;2022-09-20T08:26:14;102528.19;;;17.03;57.00
74615;BME280;63121;51.458;-0.110;2022-09-20T08:28:41;102542.09;;;17.05;56.77
74615;BME280;63121;51.458;-0.110;2022-09-20T08:31:11;102533.34;;;17.12;55.69
74615;BME280;63121;51.458;-0.110;2022-09-20T08:33:41;102529.84;;;17.15;55.10
74615;BME280;63121;51.458;-0.110;2022-09-20T08:36:11;102537.94;;;16.82;56.11
74615;BME280;63121;51.458;-0.110;2022-09-20T08:38:36;102534.50;;;16.74;56.28
74615;BME280;63121;51.458;-0.110;2022-09-20T08:41:19;102537.81;;;16.98;55.11
74615;BME280;63121;51.458;-0.110;2022-09-20T08:43:55;102535.78;;;17.27;54.57
74615;BME280;63121;51.458;-0.110;2022-09-20T08:46:28;102537.50;;;17.33;54.30
74615;BME280;63121;51.458;-0.110;2022-09-20T08:48:54;102535.38;;;17.66;53.01
74615;BME280;63121;51.458;-0.110;2022-09-20T08:51:22;102544.81;;;17.82;52.28
74615;BME280;63121;51.458;-0.110;2022-09-20T08:53:51;102535.91;;;17.97;51.94
74615;BME280;63121;51.458;-0.110;2022-09-20T08:56:17;102542.69;;;18.12;52.39
74615;BME280;63121;51.458;-0.110;2022-09-20T08:58:44;102542.66;;;18.15;51.89
74615;BME280;63121;51.458;-0.110;2022-09-20T09:01:20;102543.50;;;18.16;52.49
74615;BME280;63121;51.458;-0.110;2022-09-20T09:03:50;102550.38;;;18.23;52.77
74615;BME280;63121;51.458;-0.110;2022-09-20T09:06:18;102550.88;;;17.84;52.86
74615;BME280;63121;51.458;-0.110;2022-09-20T09:08:44;102549.16;;;17.80;53.25
74615;BME280;63121;51.458;-0.110;2022-09-20T09:11:15;102545.56;;;17.91;52.21
74615;BME280;63121;51.458;-0.110;2022-09-20T09:16:21;102541.91;;;18.05;51.94
74615;BME280;63121;51.458;-0.110;2022-09-20T09:18:47;102540.66;;;18.34;51.09
74615;BME280;63121;51.458;-0.110;2022-09-20T09:21:27;102540.41;;;18.51;50.31
74615;BME280;63121;51.458;-0.110;2022-09-20T09:24:11;102537.09;;;18.94;49.03
74615;BME280;63121;51.458;-0.110;2022-09-20T09:26:40;102532.25;;;19.22;48.37
74615;BME280;63121;51.458;-0.110;2022-09-20T09:29:08;102537.44;;;19.25;48.07
74615;BME280;63121;51.458;-0.110;2022-09-20T09:31:34;102545.00;;;19.41;47.80
74615;BME280;63121;51.458;-0.110;2022-09-20T09:33:59;102542.56;;;19.32;48.04
74615;BME280;63121;51.458;-0.110;2022-09-20T09:36:26;102544.66;;;19.11;48.48
74615;BME280;63121;51.458;-0.110;2022-09-20T09:39:13;102542.19;;;19.50;47.22
74615;BME280;63121;51.458;-0.110;2022-09-20T09:41:40;102551.06;;;19.88;46.21
74615;BME280;63121;51.458;-0.110;2022-09-20T09:44:18;102551.72;;;19.54;41.99
74615;BME280;63121;51.458;-0.110;2022-09-20T09:46:44;102558.94;;;19.41;40.87
74615;BME280;63121;51.458;-0.110;2022-09-20T09:52:13;102553.38;;;19.58;39.92
74615;BME280;63121;51.458;-0.110;2022-09-20T09:54:44;102559.84;;;19.87;39.41
74615;BME280;63121;51.458;-0.110;2022-09-20T10:00:22;102551.00;;;19.93;40.05
74615;BME280;63121;51.458;-0.110;2022-09-20T10:22:07;102549.84;;;20.82;38.13
74615;BME280;63121;51.458;-0.110;2022-09-20T10:24:59;102547.09;;;20.87;37.87
74615;BME280;63121;51.458;-0.110;2022-09-20T10:31:00;102548.97;;;21.16;37.02
74615;BME280;63121;51.458;-0.110;2022-09-20T10:36:09;102545.16;;;21.29;36.96
74615;BME280;63121;51.458;-0.110;2022-09-20T10:38:44;102547.53;;;21.37;36.89
74615;BME280;63121;51.458;-0.110;2022-09-20T10:47:17;102537.28;;;20.95;38.01
74615;BME280;63121;51.458;-0.110;2022-09-20T10:52:59;102540.31;;;21.47;36.51
74615;BME280;63121;51.458;-0.110;2022-09-20T10:58:47;102538.09;;;21.31;37.38
74615;BME280;63121;51.458;-0.110;2022-09-20T11:01:32;102536.66;;;21.18;37.25
74615;BME280;63121;51.458;-0.110;2022-09-20T11:09:33;102533.81;;;21.27;36.75
74615;BME280;63121;51.458;-0.110;2022-09-20T11:12:09;102532.69;;;21.36;36.22
74615;BME280;63121;51.458;-0.110;2022-09-20T11:14:41;102533.09;;;21.55;35.42
74615;BME280;63121;51.458;-0.110;2022-09-20T11:17:31;102530.19;;;21.31;35.37
74615;BME280;63121;51.458;-0.110;2022-09-20T11:25:29;102531.88;;;21.01;35.75
74615;BME280;63121;51.458;-0.110;2022-09-20T11:28:08;102526.84;;;21.25;36.18
74615;BME280;63121;51.458;-0.110;2022-09-20T11:30:40;102526.16;;;20.85;37.16
74615;BME280;63121;51.458;-0.110;2022-09-20T11:33:24;102519.81;;;20.94;37.00
74615;BME280;63121;51.458;-0.110;2022-09-20T11:36:03;102520.66;;;20.95;36.59
74615;BME280;63121;51.458;-0.110;2022-09-20T11:38:37;102521.50;;;20.95;36.89
74615;BME280;63121;51.458;-0.110;2022-09-20T11:41:23;102517.09;;;20.97;36.57
74615;BME280;63121;51.458;-0.110;2022-09-20T11:43:51;102512.63;;;21.34;36.15
74615;BME280;63121;51.458;-0.110;2022-09-20T11:46:23;102515.72;;;21.49;36.09
74615;BME280;63121;51.458;-0.110;2022-09-20T11:48:58;102519.47;;;21.39;36.06
74615;BME280;63121;51.458;-0.110;2022-09-20T11:56:49;102508.00;;;22.03;35.20
74615;BME280;63121;51.458;-0.110;2022-09-20T11:59:36;102512.75;;;21.91;36.04
74615;BME280;63121;51.458;-0.110;2022-09-20T12:02:15;102515.03;;;22.32;35.59
74615;BME280;63121;51.458;-0.110;2022-09-20T12:04:44;102507.97;;;22.61;34.65
74615;BME280;63121;51.458;-0.110;2022-09-20T12:07:28;102513.03;;;22.67;34.82
74615;BME280;63121;51.458;-0.110;2022-09-20T12:10:03;102511.91;;;22.74;34.63
74615;BME280;63121;51.458;-0.110;2022-09-20T12:12:40;102514.28;;;22.55;35.94
74615;BME280;63121;51.458;-0.110;2022-09-20T12:28:49;102508.47;;;22.16;36.42
74615;BME280;63121;51.458;-0.110;2022-09-20T12:36:42;102509.25;;;22.19;36.62
74615;BME280;63121;51.458;-0.110;2022-09-20T12:47:25;102498.31;;;23.13;35.58
74615;BME280;63121;51.458;-0.110;2022-09-20T12:49:52;102502.69;;;23.12;34.46
74615;BME280;63121;51.458;-0.110;2022-09-20T12:52:47;102495.50;;;23.18;34.33
74615;BME280;63121;51.458;-0.110;2022-09-20T12:55:53;102502.34;;;23.23;34.72
74615;BME280;63121;51.458;-0.110;2022-09-20T13:03:41;102496.13;;;22.47;36.31
74615;BME280;63121;51.458;-0.110;2022-09-20T13:19:03;102490.53;;;22.83;35.81
74615;BME280;63121;51.458;-0.110;2022-09-20T13:21:32;102498.19;;;23.16;35.62
74615;BME280;63121;51.458;-0.110;2022-09-20T13:24:00;102491.44;;;23.09;35.23
74615;BME280;63121;51.458;-0.110;2022-09-20T13:26:32;102486.00;;;23.37;34.66
74615;BME280;63121;51.458;-0.110;2022-09-20T13:28:58;102489.72;;;23.31;34.73
74615;BME280;63121;51.458;-0.110;2022-09-20T13:31:26;102486.72;;;22.92;35.74
74615;BME280;63121;51.458;-0.110;2022-09-20T13:33:52;102482.13;;;22.97;35.55
74615;BME280;63121;51.458;-0.110;2022-09-20T13:36:25;102488.53;;;22.90;35.84
74615;BME280;63121;51.458;-0.110;2022-09-20T13:38:52;102480.69;;;22.88;35.64
74615;BME280;63121;51.458;-0.110;2022-09-20T13:41:19;102481.31;;;23.22;35.10
74615;BME280;63121;51.458;-0.110;2022-09-20T13:43:46;102485.41;;;23.05;35.32
74615;BME280;63121;51.458;-0.110;2022-09-20T13:46:29;102476.22;;;22.65;35.88
74615;BME280;63121;51.458;-0.110;2022-09-20T13:51:33;102479.38;;;23.02;35.32
74615;BME280;63121;51.458;-0.110;2022-09-20T13:56:52;102475.22;;;22.94;36.02
74615;BME280;63121;51.458;-0.110;2022-09-20T13:59:19;102476.09;;;22.93;35.88
74615;BME280;63121;51.458;-0.110;2022-09-20T14:01:52;102475.50;;;23.12;35.86
74615;BME280;63121;51.458;-0.110;2022-09-20T14:04:22;102473.66;;;22.89;35.81
74615;BME280;63121;51.458;-0.110;2022-09-20T14:06:51;102475.47;;;22.87;36.03
74615;BME280;63121;51.458;-0.110;2022-09-20T14:09:30;102479.28;;;22.51;36.59
74615;BME280;63121;51.458;-0.110;2022-09-20T14:11:57;102471.72;;;22.69;36.35
74615;BME280;63121;51.458;-0.110;2022-09-20T14:14:23;102469.13;;;23.19;34.92
74615;BME280;63121;51.458;-0.110;2022-09-20T14:16:50;102474.84;;;23.30;35.17
74615;BME280;63121;51.458;-0.110;2022-09-20T14:19:19;102471.63;;;23.22;35.83
74615;BME280;63121;51.458;-0.110;2022-09-20T14:21:45;102461.03;;;23.24;35.58
74615;BME280;63121;51.458;-0.110;2022-09-20T14:26:39;102471.22;;;23.57;35.64
74615;BME280;63121;51.458;-0.110;2022-09-20T14:34:30;102459.34;;;23.68;34.76
74615;BME280;63121;51.458;-0.110;2022-09-20T14:37:05;102456.47;;;23.98;34.41
74615;BME280;63121;51.458;-0.110;2022-09-20T14:39:31;102459.72;;;24.69;33.02
74615;BME280;63121;51.458;-0.110;2022-09-20T14:41:57;102453.03;;;27.03;29.14
74615;BME280;63121;51.458;-0.110;2022-09-20T14:44:31;102453.22;;;29.45;25.90
74615;BME280;63121;51.458;-0.110;2022-09-20T14:46:57;102456.31;;;30.73;24.35
74615;BME280;63121;51.458;-0.110;2022-09-20T14:51:48;102449.25;;;27.89;26.71
74615;BME280;63121;51.458;-0.110;2022-09-20T14:54:28;102440.38;;;27.25;27.75
74615;BME280;63121;51.458;-0.110;2022-09-20T14:56:56;102443.06;;;25.84;29.49
74615;BME280;63121;51.458;-0.110;2022-09-20T14:59:24;102444.81;;;25.66;29.99
74615;BME280;63121;51.458;-0.110;2022-09-20T15:02:00;102430.88;;;25.25;30.77
74615;BME280;63121;51.458;-0.110;2022-09-20T15:04:28;102446.66;;;24.44;31.86
74615;BME280;63121;51.458;-0.110;2022-09-20T15:06:59;102434.22;;;23.36;33.29
74615;BME280;63121;51.458;-0.110;2022-09-20T15:09:25;102432.56;;;23.57;33.45
74615;BME280;63121;51.458;-0.110;2022-09-20T15:14:25;102430.03;;;23.07;34.07
74615;BME280;63121;51.458;-0.110;2022-09-20T15:16:51;102425.34;;;22.65;35.46
74615;BME280;63121;51.458;-0.110;2022-09-20T15:19:16;102432.72;;;22.28;36.00
74615;BME280;63121;51.458;-0.110;2022-09-20T15:21:41;102426.25;;;22.10;36.80
74615;BME280;63121;51.458;-0.110;2022-09-20T15:24:07;102417.22;;;22.18;36.49
74615;BME280;63121;51.458;-0.110;2022-09-20T15:26:32;102423.72;;;22.07;36.59
74615;BME280;63121;51.458;-0.110;2022-09-20T15:28:58;102423.19;;;21.96;36.76
74615;BME280;63121;51.458;-0.110;2022-09-20T15:31:24;102413.06;;;21.84;37.10
74615;BME280;63121;51.458;-0.110;2022-09-20T15:33:51;102412.28;;;21.52;38.37
74615;BME280;63121;51.458;-0.110;2022-09-20T15:36:16;102407.59;;;21.32;39.11
74615;BME280;63121;51.458;-0.110;2022-09-20T15:38:42;102417.84;;;21.40;39.83
74615;BME280;63121;51.458;-0.110;2022-09-20T15:41:07;102412.66;;;21.08;40.14
74615;BME280;63121;51.458;-0.110;2022-09-20T15:43:32;102419.28;;;20.89;41.41
74615;BME280;63121;51.458;-0.110;2022-09-20T15:46:22;102422.16;;;20.81;41.44
74615;BME280;63121;51.458;-0.110;2022-09-20T15:48:48;102418.56;;;20.84;41.20
74615;BME280;63121;51.458;-0.110;2022-09-20T15:51:14;102416.91;;;20.81;41.43
74615;BME280;63121;51.458;-0.110;2022-09-20T15:53:42;102417.13;;;20.72;41.30
74615;BME280;63121;51.458;-0.110;2022-09-20T15:56:18;102413.06;;;20.93;40.94
74615;BME280;63121;51.458;-0.110;2022-09-20T15:58:49;102417.03;;;20.77;41.34
74615;BME280;63121;51.458;-0.110;2022-09-20T16:01:16;102411.72;;;20.78;41.73
74615;BME280;63121;51.458;-0.110;2022-09-20T16:03:43;102419.69;;;20.75;41.17
74615;BME280;63121;51.458;-0.110;2022-09-20T16:06:09;102420.94;;;20.60;42.04
74615;BME280;63121;51.458;-0.110;2022-09-20T16:08:37;102420.13;;;20.57;41.93
74615;BME280;63121;51.458;-0.110;2022-09-20T16:11:05;102422.53;;;20.66;42.24
74615;BME280;63121;51.458;-0.110;2022-09-20T16:13:31;102421.31;;;20.79;41.73
74615;BME280;63121;51.458;-0.110;2022-09-20T16:15:58;102422.00;;;20.86;41.97
74615;BME280;63121;51.458;-0.110;2022-09-20T16:18:24;102423.13;;;20.77;42.13
74615;BME280;63121;51.458;-0.110;2022-09-20T16:21:10;102421.28;;;20.81;41.89
74615;BME280;63121;51.458;-0.110;2022-09-20T16:23:40;102418.00;;;20.73;41.42
74615;BME280;63121;51.458;-0.110;2022-09-20T16:26:08;102418.72;;;20.78;41.45
74615;BME280;63121;51.458;-0.110;2022-09-20T16:28:37;102422.34;;;20.74;41.40
74615;BME280;63121;51.458;-0.110;2022-09-20T16:31:03;102425.06;;;20.70;41.81
74615;BME280;63121;51.458;-0.110;2022-09-20T16:33:29;102427.56;;;20.75;41.70
74615;BME280;63121;51.458;-0.110;2022-09-20T16:35:54;102425.00;;;20.72;41.35
74615;BME280;63121;51.458;-0.110;2022-09-20T16:38:20;102426.84;;;20.68;40.85
74615;BME280;63121;51.458;-0.110;2022-09-20T16:40:48;102423.34;;;20.68;40.70
74615;BME280;63121;51.458;-0.110;2022-09-20T16:43:16;102428.41;;;20.76;40.77
74615;BME280;63121;51.458;-0.110;2022-09-20T16:45:48;102432.00;;;20.71;41.16
74615;BME280;63121;51.458;-0.110;2022-09-20T16:48:13;102431.72;;;20.82;41.50
74615;BME280;63121;51.458;-0.110;2022-09-20T16:50:38;102432.66;;;20.81;41.59
74615;BME280;63121;51.458;-0.110;2022-09-20T16:53:04;102440.59;;;20.78;41.75
74615;BME280;63121;51.458;-0.110;2022-09-20T16:55:29;102436.03;;;20.85;41.57
74615;BME280;63121;51.458;-0.110;2022-09-20T16:57:54;102432.97;;;20.69;42.38
74615;BME280;63121;51.458;-0.110;2022-09-20T17:00:20;102434.59;;;20.73;42.04
74615;BME280;63121;51.458;-0.110;2022-09-20T17:02:49;102443.31;;;20.75;42.28
74615;BME280;63121;51.458;-0.110;2022-09-20T17:05:16;102447.56;;;20.79;41.95
74615;BME280;63121;51.458;-0.110;2022-09-20T17:07:41;102442.59;;;21.01;41.70
74615;BME280;63121;51.458;-0.110;2022-09-20T17:10:08;102436.50;;;23.45;37.02
74615;BME280;63121;51.458;-0.110;2022-09-20T17:12:34;102435.97;;;23.36;36.79
74615;BME280;63121;51.458;-0.110;2022-09-20T17:15:09;102438.38;;;22.68;37.92
74615;BME280;63121;51.458;-0.110;2022-09-20T17:17:37;102440.81;;;22.21;38.29
74615;BME280;63121;51.458;-0.110;2022-09-20T17:20:03;102437.44;;;21.89;39.32
74615;BME280;63121;51.458;-0.110;2022-09-20T17:22:30;102433.84;;;21.63;39.84
74615;BME280;63121;51.458;-0.110;2022-09-20T17:24:55;102431.13;;;21.35;40.04
74615;BME280;63121;51.458;-0.110;2022-09-20T17:27:21;102435.97;;;21.19;41.07
74615;BME280;63121;51.458;-0.110;2022-09-20T17:29:48;102440.56;;;20.80;41.55
74615;BME280;63121;51.458;-0.110;2022-09-20T17:32:13;102437.19;;;20.75;41.87
74615;BME280;63121;51.458;-0.110;2022-09-20T17:34:39;102434.47;;;20.78;42.24
74615;BME280;63121;51.458;-0.110;2022-09-20T17:37:05;102439.75;;;20.76;41.70
74615;BME280;63121;51.458;-0.110;2022-09-20T17:39:30;102445.28;;;20.65;42.39
74615;BME280;63121;51.458;-0.110;2022-09-20T17:41:55;102447.91;;;20.65;42.51
74615;BME280;63121;51.458;-0.110;2022-09-20T17:44:21;102449.78;;;20.62;42.76
74615;BME280;63121;51.458;-0.110;2022-09-20T17:46:48;102450.25;;;20.40;42.79
74615;BME280;63121;51.458;-0.110;2022-09-20T17:49:18;102456.13;;;20.51;42.78
74615;BME280;63121;51.458;-0.110;2022-09-20T17:51:54;102457.03;;;20.49;43.33
74615;BME280;63121;51.458;-0.110;2022-09-20T17:54:20;102457.31;;;20.38;43.62
74615;BME280;63121;51.458;-0.110;2022-09-20T17:56:50;102450.19;;;20.07;44.18
74615;BME280;63121;51.458;-0.110;2022-09-20T17:59:18;102450.38;;;19.98;44.12
74615;BME280;63121;51.458;-0.110;2022-09-20T18:01:44;102447.00;;;19.95;44.55
74615;BME280;63121;51.458;-0.110;2022-09-20T18:04:11;102450.13;;;19.70;44.98
74615;BME280;63121;51.458;-0.110;2022-09-20T18:06:37;102452.75;;;19.68;45.22
74615;BME280;63121;51.458;-0.110;2022-09-20T18:09:08;102461.56;;;19.64;45.65
74615;BME280;63121;51.458;-0.110;2022-09-20T18:11:39;102453.81;;;19.60;45.78
74615;BME280;63121;51.458;-0.110;2022-09-20T18:14:07;102454.31;;;19.35;45.85
74615;BME280;63121;51.458;-0.110;2022-09-20T18:16:34;102452.69;;;19.29;46.40
74615;BME280;63121;51.458;-0.110;2022-09-20T18:19:01;102451.91;;;19.24;46.35
74615;BME280;63121;51.458;-0.110;2022-09-20T18:21:28;102455.56;;;19.17;46.49
74615;BME280;63121;51.458;-0.110;2022-09-20T18:23:54;102452.16;;;19.12;46.64